DAL179 DIYO-DGAA
Flight info
| Callsign | DAL179 |
|---|---|
| Flight time | 1h 4m |
| Altitude | 35000 |
| Route | POKNO DCT DIGDA DCT DEGAS DCT TUSEK DCT MIMTI |
| Aircraft | B738/M-SDE2E3FGHIRWXY/LB1 |
Departure
| Time | 2026-04-22 15:45 |
|---|---|
| Airport | Yamoussoukro International Airport (DIYO) |
Arrival
| Time | 2026-04-22 16:50 |
|---|---|
| Airport | Kotoka International Airport (DGAA) |
| Time | Latitude | Longitude | Altitude | Speed | Heading |
|---|---|---|---|---|---|
| 2026-04-22 15:16 | 6.90479 | -5.36234 | 679 ft | 0 kts | 166° |
| 2026-04-22 15:40 | 6.90475 | -5.36233 | 684 ft | 2 kts | 166° |
| 2026-04-22 15:40 | 6.90470 | -5.36244 | 684 ft | 2 kts | 284° |
| 2026-04-22 15:40 | 6.90479 | -5.36256 | 681 ft | 2 kts | 307° |
| 2026-04-22 15:41 | 6.90492 | -5.36272 | 681 ft | 4 kts | 309° |
| 2026-04-22 15:41 | 6.90512 | -5.36296 | 684 ft | 5 kts | 310° |
| 2026-04-22 15:41 | 6.90540 | -5.36330 | 680 ft | 7 kts | 310° |
| 2026-04-22 15:41 | 6.90588 | -5.36355 | 683 ft | 9 kts | 1° |
| 2026-04-22 15:42 | 6.90638 | -5.36323 | 683 ft | 9 kts | 40° |
| 2026-04-22 15:42 | 6.90683 | -5.36283 | 681 ft | 9 kts | 43° |
| 2026-04-22 15:42 | 6.90729 | -5.36242 | 685 ft | 10 kts | 41° |
| 2026-04-22 15:42 | 6.90790 | -5.36189 | 686 ft | 14 kts | 41° |
| 2026-04-22 15:43 | 6.90874 | -5.36116 | 687 ft | 18 kts | 41° |
| 2026-04-22 15:43 | 6.90976 | -5.36027 | 690 ft | 21 kts | 40° |
| 2026-04-22 15:43 | 6.91088 | -5.35924 | 689 ft | 23 kts | 41° |
| 2026-04-22 15:43 | 6.91213 | -5.35815 | 692 ft | 24 kts | 41° |
| 2026-04-22 15:44 | 6.91299 | -5.35776 | 698 ft | 13 kts | 342° |
| 2026-04-22 15:44 | 6.91343 | -5.35751 | 693 ft | 3 kts | 112° |
| 2026-04-22 15:44 | 6.91317 | -5.35721 | 696 ft | 6 kts | 154° |
| 2026-04-22 15:44 | 6.91281 | -5.35745 | 695 ft | 9 kts | 224° |
| 2026-04-22 15:45 | 6.91108 | -5.35896 | 691 ft | 67 kts | 221° |
| 2026-04-22 15:45 | 6.90585 | -5.36364 | 683 ft | 132 kts | 221° |
| 2026-04-22 15:45 | 6.89771 | -5.37091 | 826 ft | 170 kts | 222° |
| 2026-04-22 15:45 | 6.88891 | -5.37883 | 1550 ft | 170 kts | 221° |
| 2026-04-22 15:46 | 6.88004 | -5.38686 | 2276 ft | 175 kts | 220° |
| 2026-04-22 15:46 | 6.87067 | -5.39529 | 2800 ft | 195 kts | 220° |
| 2026-04-22 15:46 | 6.85981 | -5.40503 | 3024 ft | 222 kts | 221° |
| 2026-04-22 15:46 | 6.84776 | -5.41583 | 3327 ft | 240 kts | 220° |
| 2026-04-22 15:47 | 6.83467 | -5.42753 | 3621 ft | 262 kts | 220° |
| 2026-04-22 15:47 | 6.82067 | -5.44002 | 4230 ft | 274 kts | 220° |
| 2026-04-22 15:47 | 6.80648 | -5.45265 | 5020 ft | 278 kts | 220° |
| 2026-04-22 15:47 | 6.79194 | -5.46558 | 5847 ft | 281 kts | 220° |
| 2026-04-22 15:48 | 6.77683 | -5.47831 | 6593 ft | 286 kts | 210° |
| 2026-04-22 15:48 | 6.75818 | -5.48480 | 7265 ft | 286 kts | 180° |
| 2026-04-22 15:48 | 6.73888 | -5.48165 | 8021 ft | 281 kts | 152° |
| 2026-04-22 15:48 | 6.72298 | -5.47065 | 8788 ft | 278 kts | 131° |
| 2026-04-22 15:49 | 6.71004 | -5.45622 | 9601 ft | 278 kts | 127° |
| 2026-04-22 15:49 | 6.69834 | -5.44071 | 10232 ft | 283 kts | 115° |
| 2026-04-22 15:49 | 6.69160 | -5.42156 | 10482 ft | 299 kts | 101° |
| 2026-04-22 15:49 | 6.68709 | -5.40079 | 11032 ft | 307 kts | 100° |
| 2026-04-22 15:50 | 6.68271 | -5.37966 | 11725 ft | 310 kts | 100° |
| 2026-04-22 15:50 | 6.67832 | -5.35832 | 12444 ft | 313 kts | 101° |
| 2026-04-22 15:50 | 6.67385 | -5.33678 | 13129 ft | 317 kts | 101° |
| 2026-04-22 15:50 | 6.66928 | -5.31498 | 13797 ft | 321 kts | 101° |
| 2026-04-22 15:51 | 6.66461 | -5.29287 | 14374 ft | 325 kts | 101° |
| 2026-04-22 15:51 | 6.65984 | -5.27042 | 14925 ft | 332 kts | 101° |
| 2026-04-22 15:51 | 6.65496 | -5.24755 | 15456 ft | 337 kts | 101° |
| 2026-04-22 15:51 | 6.64998 | -5.22429 | 16002 ft | 343 kts | 101° |
| 2026-04-22 15:52 | 6.64493 | -5.20070 | 16536 ft | 348 kts | 102° |
| 2026-04-22 15:52 | 6.63979 | -5.17676 | 17061 ft | 353 kts | 102° |
| 2026-04-22 15:52 | 6.63457 | -5.15243 | 17595 ft | 358 kts | 102° |
| 2026-04-22 15:52 | 6.62927 | -5.12777 | 18105 ft | 363 kts | 102° |
| 2026-04-22 15:53 | 6.62389 | -5.10275 | 18551 ft | 368 kts | 102° |
| 2026-04-22 15:53 | 6.61848 | -5.07754 | 19054 ft | 370 kts | 102° |
| 2026-04-22 15:53 | 6.61302 | -5.05215 | 19555 ft | 372 kts | 102° |
| 2026-04-22 15:53 | 6.60753 | -5.02662 | 20038 ft | 375 kts | 101° |
| 2026-04-22 15:54 | 6.60199 | -5.00087 | 20505 ft | 378 kts | 101° |
| 2026-04-22 15:54 | 6.59640 | -4.97488 | 20976 ft | 381 kts | 101° |
| 2026-04-22 15:54 | 6.59077 | -4.94872 | 21449 ft | 384 kts | 101° |
| 2026-04-22 15:54 | 6.58510 | -4.92236 | 21917 ft | 387 kts | 101° |
| 2026-04-22 15:55 | 6.57937 | -4.89575 | 22377 ft | 391 kts | 101° |
| 2026-04-22 15:55 | 6.57361 | -4.86898 | 22820 ft | 393 kts | 101° |
| 2026-04-22 15:55 | 6.56780 | -4.84199 | 23251 ft | 396 kts | 101° |
| 2026-04-22 15:55 | 6.56195 | -4.81485 | 23628 ft | 399 kts | 101° |
| 2026-04-22 15:56 | 6.55607 | -4.78754 | 23987 ft | 401 kts | 101° |
| 2026-04-22 15:56 | 6.55015 | -4.76008 | 24348 ft | 403 kts | 101° |
| 2026-04-22 15:56 | 6.54419 | -4.73244 | 24704 ft | 405 kts | 101° |
| 2026-04-22 15:56 | 6.53821 | -4.70470 | 25063 ft | 407 kts | 101° |
| 2026-04-22 15:57 | 6.53219 | -4.67680 | 25410 ft | 410 kts | 101° |
| 2026-04-22 15:57 | 6.52613 | -4.64872 | 25768 ft | 412 kts | 101° |
| 2026-04-22 15:57 | 6.52005 | -4.62053 | 26106 ft | 414 kts | 101° |
| 2026-04-22 15:57 | 6.51393 | -4.59216 | 26448 ft | 416 kts | 101° |
| 2026-04-22 15:58 | 6.50777 | -4.56367 | 26790 ft | 418 kts | 100° |
| 2026-04-22 15:58 | 6.50158 | -4.53499 | 27098 ft | 421 kts | 100° |
| 2026-04-22 15:58 | 6.49534 | -4.50609 | 27417 ft | 424 kts | 100° |
| 2026-04-22 15:58 | 6.48912 | -4.47707 | 27746 ft | 426 kts | 99° |
| 2026-04-22 15:59 | 6.48374 | -4.44778 | 28080 ft | 427 kts | 97° |
| 2026-04-22 15:59 | 6.47897 | -4.41822 | 28393 ft | 429 kts | 97° |
| 2026-04-22 15:59 | 6.47440 | -4.38851 | 28703 ft | 431 kts | 97° |
| 2026-04-22 15:59 | 6.46986 | -4.35901 | 29005 ft | 433 kts | 97° |
| 2026-04-22 16:00 | 6.46518 | -4.32901 | 29309 ft | 436 kts | 97° |
| 2026-04-22 16:00 | 6.46040 | -4.29890 | 29616 ft | 437 kts | 97° |
| 2026-04-22 16:00 | 6.45552 | -4.26862 | 29910 ft | 439 kts | 97° |
| 2026-04-22 16:00 | 6.45059 | -4.23825 | 30162 ft | 441 kts | 97° |
| 2026-04-22 16:01 | 6.44561 | -4.20777 | 30418 ft | 443 kts | 97° |
| 2026-04-22 16:01 | 6.44060 | -4.17719 | 30698 ft | 443 kts | 98° |
| 2026-04-22 16:01 | 6.43559 | -4.14659 | 30954 ft | 445 kts | 98° |
| 2026-04-22 16:01 | 6.43056 | -4.11589 | 31194 ft | 446 kts | 98° |
| 2026-04-22 16:02 | 6.42550 | -4.08505 | 31433 ft | 448 kts | 98° |
| 2026-04-22 16:02 | 6.42044 | -4.05413 | 31671 ft | 449 kts | 98° |
| 2026-04-22 16:02 | 6.41535 | -4.02312 | 31901 ft | 451 kts | 99° |
| 2026-04-22 16:02 | 6.41025 | -3.99197 | 32140 ft | 452 kts | 99° |
| 2026-04-22 16:03 | 6.40513 | -3.96077 | 32367 ft | 453 kts | 99° |
| 2026-04-22 16:03 | 6.40000 | -3.92949 | 32653 ft | 453 kts | 99° |
| 2026-04-22 16:03 | 6.39489 | -3.89833 | 33000 ft | 451 kts | 99° |
| 2026-04-22 16:03 | 6.38980 | -3.86728 | 33382 ft | 449 kts | 99° |
| 2026-04-22 16:04 | 6.38473 | -3.83641 | 33723 ft | 447 kts | 100° |
| 2026-04-22 16:04 | 6.37967 | -3.80560 | 33987 ft | 447 kts | 100° |
| 2026-04-22 16:04 | 6.37459 | -3.77469 | 34171 ft | 448 kts | 100° |
| 2026-04-22 16:04 | 6.36951 | -3.74379 | 34425 ft | 448 kts | 100° |
| 2026-04-22 16:05 | 6.36615 | -3.72339 | 34629 ft | 446 kts | 100° |
| 2026-04-22 16:05 | 6.35938 | -3.68220 | 34811 ft | 449 kts | 100° |
| 2026-04-22 16:05 | 6.34916 | -3.62014 | 34823 ft | 450 kts | 100° |
| 2026-04-22 16:06 | 6.33903 | -3.55861 | 34823 ft | 443 kts | 100° |
| 2026-04-22 16:06 | 6.32897 | -3.49759 | 34840 ft | 442 kts | 100° |
| 2026-04-22 16:07 | 6.31891 | -3.43663 | 34835 ft | 442 kts | 100° |
| 2026-04-22 16:07 | 6.30883 | -3.37557 | 34834 ft | 443 kts | 99° |
| 2026-04-22 16:08 | 6.29875 | -3.31455 | 34836 ft | 443 kts | 99° |
| 2026-04-22 16:08 | 6.28865 | -3.25344 | 34836 ft | 443 kts | 99° |
| 2026-04-22 16:09 | 6.27847 | -3.19232 | 34838 ft | 444 kts | 101° |
| 2026-04-22 16:09 | 6.26047 | -3.13312 | 34845 ft | 443 kts | 110° |
| 2026-04-22 16:10 | 6.23873 | -3.07506 | 34841 ft | 444 kts | 111° |
| 2026-04-22 16:10 | 6.21708 | -3.01690 | 34838 ft | 444 kts | 110° |
| 2026-04-22 16:11 | 6.19579 | -2.95861 | 34835 ft | 445 kts | 110° |
| 2026-04-22 16:11 | 6.17462 | -2.90018 | 34838 ft | 445 kts | 110° |
| 2026-04-22 16:12 | 6.15704 | -2.85160 | 34838 ft | 445 kts | 110° |
| 2026-04-22 16:12 | 6.13588 | -2.79315 | 34838 ft | 445 kts | 110° |
| 2026-04-22 16:13 | 6.11472 | -2.73474 | 34840 ft | 445 kts | 110° |
| 2026-04-22 16:13 | 6.09354 | -2.67632 | 34837 ft | 445 kts | 110° |
| 2026-04-22 16:14 | 6.07237 | -2.61793 | 34844 ft | 444 kts | 110° |
| 2026-04-22 16:14 | 6.05123 | -2.55965 | 34833 ft | 443 kts | 110° |
| 2026-04-22 16:15 | 6.03015 | -2.50157 | 34834 ft | 442 kts | 110° |
| 2026-04-22 16:15 | 6.00912 | -2.44366 | 34835 ft | 440 kts | 110° |
| 2026-04-22 16:16 | 5.98816 | -2.38594 | 34834 ft | 439 kts | 110° |
| 2026-04-22 16:16 | 5.96726 | -2.32840 | 34835 ft | 438 kts | 110° |
| 2026-04-22 16:17 | 5.94655 | -2.27141 | 34837 ft | 437 kts | 110° |
| 2026-04-22 16:18 | 5.90416 | -2.15486 | 34835 ft | 437 kts | 110° |
| 2026-04-22 16:18 | 5.88329 | -2.09749 | 34831 ft | 437 kts | 110° |
| 2026-04-22 16:19 | 5.86240 | -2.04010 | 34830 ft | 438 kts | 110° |
| 2026-04-22 16:19 | 5.84151 | -1.98273 | 34830 ft | 435 kts | 110° |
| 2026-04-22 16:20 | 5.83120 | -1.95440 | 34705 ft | 429 kts | 110° |
| 2026-04-22 16:20 | 5.82101 | -1.92641 | 34412 ft | 423 kts | 110° |
| 2026-04-22 16:20 | 5.81096 | -1.89883 | 34046 ft | 419 kts | 110° |
| 2026-04-22 16:20 | 5.80096 | -1.87140 | 33655 ft | 417 kts | 110° |
| 2026-04-22 16:21 | 5.79103 | -1.84415 | 33238 ft | 415 kts | 110° |
| 2026-04-22 16:21 | 5.78114 | -1.81703 | 32832 ft | 413 kts | 109° |
| 2026-04-22 16:21 | 5.77128 | -1.79000 | 32437 ft | 411 kts | 109° |
| 2026-04-22 16:21 | 5.76149 | -1.76315 | 32046 ft | 409 kts | 109° |
| 2026-04-22 16:22 | 5.74196 | -1.70960 | 31272 ft | 406 kts | 108° |
| 2026-04-22 16:22 | 5.73227 | -1.68304 | 30889 ft | 405 kts | 108° |
| 2026-04-22 16:22 | 5.72272 | -1.65686 | 30499 ft | 404 kts | 108° |
| 2026-04-22 16:23 | 5.70339 | -1.60390 | 29707 ft | 403 kts | 108° |
| 2026-04-22 16:23 | 5.69377 | -1.57751 | 29292 ft | 401 kts | 108° |
| 2026-04-22 16:23 | 5.68422 | -1.55137 | 28977 ft | 397 kts | 108° |
| 2026-04-22 16:24 | 5.67475 | -1.52544 | 28584 ft | 394 kts | 108° |
| 2026-04-22 16:24 | 5.65599 | -1.47408 | 27836 ft | 390 kts | 108° |
| 2026-04-22 16:24 | 5.64670 | -1.44863 | 27465 ft | 387 kts | 108° |
| 2026-04-22 16:25 | 5.63743 | -1.42326 | 27093 ft | 385 kts | 108° |
| 2026-04-22 16:25 | 5.61907 | -1.37302 | 26357 ft | 382 kts | 108° |
| 2026-04-22 16:25 | 5.60995 | -1.34807 | 25992 ft | 380 kts | 109° |
| 2026-04-22 16:26 | 5.60087 | -1.32321 | 25619 ft | 379 kts | 109° |
| 2026-04-22 16:26 | 5.59183 | -1.29847 | 25255 ft | 377 kts | 109° |
| 2026-04-22 16:26 | 5.58280 | -1.27378 | 24878 ft | 376 kts | 109° |
| 2026-04-22 16:26 | 5.57378 | -1.24911 | 24508 ft | 375 kts | 109° |
| 2026-04-22 16:27 | 5.56481 | -1.22457 | 24141 ft | 375 kts | 109° |
| 2026-04-22 16:27 | 5.55583 | -1.20003 | 23775 ft | 374 kts | 110° |
| 2026-04-22 16:27 | 5.54688 | -1.17556 | 23401 ft | 373 kts | 110° |
| 2026-04-22 16:27 | 5.54011 | -1.15054 | 22943 ft | 372 kts | 94° |
| 2026-04-22 16:28 | 5.54105 | -1.12478 | 22596 ft | 368 kts | 84° |
| 2026-04-22 16:28 | 5.54383 | -1.09932 | 22193 ft | 366 kts | 83° |
| 2026-04-22 16:28 | 5.54686 | -1.07408 | 21831 ft | 363 kts | 83° |
| 2026-04-22 16:28 | 5.54986 | -1.04899 | 21470 ft | 361 kts | 83° |
| 2026-04-22 16:29 | 5.55277 | -1.02399 | 21108 ft | 359 kts | 83° |
| 2026-04-22 16:29 | 5.55555 | -0.99932 | 20740 ft | 352 kts | 84° |
| 2026-04-22 16:29 | 5.55820 | -0.97526 | 20394 ft | 343 kts | 84° |
| 2026-04-22 16:29 | 5.56078 | -0.95161 | 20064 ft | 340 kts | 84° |
| 2026-04-22 16:30 | 5.56246 | -0.93603 | 19845 ft | 339 kts | 84° |
| 2026-04-22 16:30 | 5.56584 | -0.90466 | 19380 ft | 337 kts | 84° |
| 2026-04-22 16:30 | 5.56835 | -0.88127 | 19036 ft | 337 kts | 84° |
| 2026-04-22 16:30 | 5.57085 | -0.85794 | 18688 ft | 336 kts | 84° |
| 2026-04-22 16:31 | 5.57335 | -0.83461 | 18341 ft | 336 kts | 84° |
| 2026-04-22 16:31 | 5.57585 | -0.81131 | 17974 ft | 336 kts | 84° |
| 2026-04-22 16:31 | 5.57834 | -0.78807 | 17599 ft | 332 kts | 84° |
| 2026-04-22 16:31 | 5.58075 | -0.76561 | 17240 ft | 324 kts | 84° |
| 2026-04-22 16:32 | 5.58312 | -0.74349 | 16909 ft | 314 kts | 84° |
| 2026-04-22 16:32 | 5.58542 | -0.72197 | 16587 ft | 306 kts | 84° |
| 2026-04-22 16:32 | 5.58766 | -0.70105 | 16275 ft | 297 kts | 84° |
| 2026-04-22 16:32 | 5.58984 | -0.68066 | 15973 ft | 290 kts | 84° |
| 2026-04-22 16:33 | 5.59197 | -0.66074 | 15633 ft | 287 kts | 84° |
| 2026-04-22 16:33 | 5.59412 | -0.64069 | 15271 ft | 293 kts | 84° |
| 2026-04-22 16:33 | 5.59632 | -0.62001 | 14861 ft | 303 kts | 84° |
| 2026-04-22 16:33 | 5.59858 | -0.59889 | 14440 ft | 304 kts | 84° |
| 2026-04-22 16:34 | 5.60082 | -0.57791 | 14028 ft | 300 kts | 84° |
| 2026-04-22 16:34 | 5.60304 | -0.55721 | 13598 ft | 297 kts | 84° |
| 2026-04-22 16:34 | 5.60522 | -0.53674 | 13163 ft | 293 kts | 84° |
| 2026-04-22 16:34 | 5.60738 | -0.51656 | 12748 ft | 289 kts | 84° |
| 2026-04-22 16:35 | 5.60951 | -0.49661 | 12347 ft | 286 kts | 84° |
| 2026-04-22 16:35 | 5.61162 | -0.47683 | 11953 ft | 284 kts | 84° |
| 2026-04-22 16:35 | 5.61370 | -0.45725 | 11613 ft | 280 kts | 84° |
| 2026-04-22 16:35 | 5.61576 | -0.43796 | 11296 ft | 276 kts | 83° |
| 2026-04-22 16:36 | 5.61779 | -0.41888 | 10990 ft | 275 kts | 83° |
| 2026-04-22 16:36 | 5.61983 | -0.39973 | 10684 ft | 277 kts | 83° |
| 2026-04-22 16:36 | 5.62189 | -0.38044 | 10380 ft | 279 kts | 83° |
| 2026-04-22 16:36 | 5.62394 | -0.36118 | 10041 ft | 276 kts | 83° |
| 2026-04-22 16:37 | 5.62596 | -0.34216 | 9735 ft | 272 kts | 83° |
| 2026-04-22 16:37 | 5.62795 | -0.32343 | 9407 ft | 268 kts | 83° |
| 2026-04-22 16:37 | 5.62992 | -0.30498 | 9086 ft | 264 kts | 83° |
| 2026-04-22 16:37 | 5.63186 | -0.28677 | 8784 ft | 262 kts | 83° |
| 2026-04-22 16:38 | 5.63381 | -0.26862 | 8487 ft | 262 kts | 81° |
| 2026-04-22 16:38 | 5.63980 | -0.25154 | 8177 ft | 262 kts | 54° |
| 2026-04-22 16:38 | 5.65267 | -0.23878 | 7915 ft | 262 kts | 35° |
| 2026-04-22 16:38 | 5.66900 | -0.23050 | 7630 ft | 264 kts | 24° |
| 2026-04-22 16:39 | 5.68611 | -0.22367 | 7322 ft | 266 kts | 23° |
| 2026-04-22 16:39 | 5.70326 | -0.21691 | 7023 ft | 262 kts | 23° |
| 2026-04-22 16:39 | 5.72013 | -0.21019 | 6606 ft | 262 kts | 23° |
| 2026-04-22 16:39 | 5.73711 | -0.20332 | 6127 ft | 264 kts | 23° |
| 2026-04-22 16:40 | 5.75390 | -0.19646 | 5700 ft | 263 kts | 22° |
| 2026-04-22 16:40 | 5.77081 | -0.18952 | 5297 ft | 262 kts | 22° |
| 2026-04-22 16:40 | 5.80444 | -0.17568 | 4477 ft | 260 kts | 22° |
| 2026-04-22 16:41 | 5.82109 | -0.16860 | 4055 ft | 260 kts | 23° |
| 2026-04-22 16:41 | 5.83721 | -0.16157 | 3966 ft | 245 kts | 23° |
| 2026-04-22 16:41 | 5.85254 | -0.15483 | 3731 ft | 238 kts | 23° |
| 2026-04-22 16:41 | 5.86768 | -0.14814 | 3374 ft | 238 kts | 23° |
| 2026-04-22 16:42 | 5.88295 | -0.14137 | 3095 ft | 239 kts | 24° |
| 2026-04-22 16:42 | 5.89653 | -0.13187 | 3017 ft | 240 kts | 51° |
| 2026-04-22 16:42 | 5.90338 | -0.11679 | 2913 ft | 239 kts | 83° |
| 2026-04-22 16:42 | 5.90139 | -0.10074 | 2789 ft | 230 kts | 116° |
| 2026-04-22 16:43 | 5.89175 | -0.08853 | 2684 ft | 220 kts | 140° |
| 2026-04-22 16:43 | 5.88024 | -0.07906 | 2608 ft | 210 kts | 142° |
| 2026-04-22 16:43 | 5.86884 | -0.06999 | 2495 ft | 209 kts | 144° |
| 2026-04-22 16:43 | 5.85563 | -0.06447 | 2349 ft | 209 kts | 182° |
| 2026-04-22 16:44 | 5.84205 | -0.06886 | 2284 ft | 208 kts | 210° |
| 2026-04-22 16:44 | 5.82870 | -0.07491 | 2177 ft | 213 kts | 200° |
| 2026-04-22 16:44 | 5.81491 | -0.08018 | 2126 ft | 211 kts | 203° |
| 2026-04-22 16:44 | 5.80146 | -0.08587 | 2106 ft | 208 kts | 203° |
| 2026-04-22 16:45 | 5.78806 | -0.09149 | 2103 ft | 210 kts | 203° |
| 2026-04-22 16:45 | 5.77460 | -0.09709 | 2097 ft | 206 kts | 203° |
| 2026-04-22 16:45 | 5.76180 | -0.10239 | 2080 ft | 192 kts | 203° |
| 2026-04-22 16:45 | 5.74994 | -0.10729 | 2092 ft | 181 kts | 203° |
| 2026-04-22 16:46 | 5.73837 | -0.11209 | 2113 ft | 180 kts | 202° |
| 2026-04-22 16:46 | 5.72710 | -0.11675 | 2081 ft | 169 kts | 203° |
| 2026-04-22 16:46 | 5.71659 | -0.12111 | 2134 ft | 157 kts | 203° |
| 2026-04-22 16:46 | 5.70648 | -0.12529 | 2018 ft | 155 kts | 203° |
| 2026-04-22 16:47 | 5.69668 | -0.12936 | 1827 ft | 150 kts | 201° |
| 2026-04-22 16:47 | 5.68718 | -0.13329 | 1648 ft | 146 kts | 202° |
| 2026-04-22 16:47 | 5.68095 | -0.13586 | 1536 ft | 146 kts | 202° |
| 2026-04-22 16:47 | 5.66841 | -0.14106 | 1285 ft | 144 kts | 202° |
| 2026-04-22 16:48 | 5.65928 | -0.14483 | 1096 ft | 143 kts | 202° |
| 2026-04-22 16:48 | 5.65018 | -0.14863 | 888 ft | 138 kts | 201° |
| 2026-04-22 16:48 | 5.64124 | -0.15232 | 723 ft | 138 kts | 201° |
| 2026-04-22 16:48 | 5.63250 | -0.15595 | 565 ft | 138 kts | 200° |
| 2026-04-22 16:49 | 5.62373 | -0.15959 | 368 ft | 136 kts | 202° |
| 2026-04-22 16:49 | 5.61496 | -0.16320 | 231 ft | 134 kts | 202° |
| 2026-04-22 16:49 | 5.60723 | -0.16638 | 224 ft | 101 kts | 202° |
| 2026-04-22 16:49 | 5.60212 | -0.16847 | 213 ft | 58 kts | 202° |
| 2026-04-22 16:50 | 5.59964 | -0.16970 | 203 ft | 30 kts | 219° |
| 2026-04-22 16:50 | 5.59861 | -0.17084 | 204 ft | 14 kts | 232° |
| 2026-04-22 16:50 | 5.59822 | -0.17154 | 213 ft | 11 kts | 275° |
| 2026-04-22 16:50 | 5.59874 | -0.17195 | 212 ft | 10 kts | 5° |
| 2026-04-22 16:51 | 5.59928 | -0.17176 | 212 ft | 7 kts | 22° |
| 2026-04-22 16:51 | 5.59973 | -0.17158 | 213 ft | 7 kts | 22° |
| 2026-04-22 16:51 | 5.60018 | -0.17139 | 206 ft | 7 kts | 22° |
| 2026-04-22 16:51 | 5.60066 | -0.17140 | 209 ft | 7 kts | 321° |
| 2026-04-22 16:52 | 5.60083 | -0.17168 | 212 ft | 7 kts | 294° |
| 2026-04-22 16:52 | 5.60098 | -0.17205 | 212 ft | 2 kts | 292° |
| 2026-04-22 16:52 | 5.60102 | -0.17214 | 214 ft | 0 kts | 292° |